sensor_id;sensor_type;location;lat;lon;timestamp;pressure;altitude;pressure_sealevel;temperature;humidity
63700;BME280;49845;47.130;142.766;2023-05-23T00:02:06;99818.16;;;11.89;61.25
63700;BME280;49845;47.130;142.766;2023-05-23T00:04:37;99812.09;;;11.87;63.76
63700;BME280;49845;47.130;142.766;2023-05-23T00:07:09;99821.25;;;12.03;63.76
63700;BME280;49845;47.130;142.766;2023-05-23T00:09:40;99826.47;;;12.03;60.48
63700;BME280;49845;47.130;142.766;2023-05-23T00:12:10;99825.81;;;12.25;63.35
63700;BME280;49845;47.130;142.766;2023-05-23T00:14:41;99821.50;;;12.24;58.74
63700;BME280;49845;47.130;142.766;2023-05-23T00:17:11;99815.06;;;12.34;60.89
63700;BME280;49845;47.130;142.766;2023-05-23T00:19:41;99831.69;;;12.61;59.72
63700;BME280;49845;47.130;142.766;2023-05-23T00:22:15;99813.16;;;12.39;59.86
63700;BME280;49845;47.130;142.766;2023-05-23T00:24:45;99822.31;;;12.26;61.32
63700;BME280;49845;47.130;142.766;2023-05-23T00:27:16;99800.78;;;12.16;59.35
63700;BME280;49845;47.130;142.766;2023-05-23T00:29:46;99816.69;;;11.79;58.86
63700;BME280;49845;47.130;142.766;2023-05-23T00:32:17;99817.44;;;11.51;59.30
63700;BME280;49845;47.130;142.766;2023-05-23T00:34:48;99805.72;;;11.64;61.34
63700;BME280;49845;47.130;142.766;2023-05-23T00:37:23;99803.03;;;11.99;60.41
63700;BME280;49845;47.130;142.766;2023-05-23T00:39:53;99808.13;;;12.33;60.63
63700;BME280;49845;47.130;142.766;2023-05-23T00:42:24;99782.22;;;12.24;59.41
63700;BME280;49845;47.130;142.766;2023-05-23T00:44:54;99813.38;;;12.33;57.73
63700;BME280;49845;47.130;142.766;2023-05-23T00:47:25;99802.91;;;12.33;58.84
63700;BME280;49845;47.130;142.766;2023-05-23T00:49:55;99813.75;;;12.21;57.74
63700;BME280;49845;47.130;142.766;2023-05-23T00:52:28;99793.13;;;12.38;58.49
63700;BME280;49845;47.130;142.766;2023-05-23T00:54:58;99805.63;;;12.57;58.05
63700;BME280;49845;47.130;142.766;2023-05-23T00:57:29;99797.88;;;12.54;58.35
63700;BME280;49845;47.130;142.766;2023-05-23T01:00:01;99788.22;;;12.56;59.59
63700;BME280;49845;47.130;142.766;2023-05-23T01:02:34;99787.47;;;12.22;58.97
63700;BME280;49845;47.130;142.766;2023-05-23T01:05:07;99810.66;;;12.06;58.92
63700;BME280;49845;47.130;142.766;2023-05-23T01:07:40;99775.91;;;11.70;58.84
63700;BME280;49845;47.130;142.766;2023-05-23T01:10:11;99733.00;;;11.46;59.75
63700;BME280;49845;47.130;142.766;2023-05-23T01:12:54;99800.78;;;11.85;60.24
63700;BME280;49845;47.130;142.766;2023-05-23T01:15:29;99795.09;;;11.71;58.77
63700;BME280;49845;47.130;142.766;2023-05-23T01:18:08;99787.25;;;11.71;61.20
63700;BME280;49845;47.130;142.766;2023-05-23T01:20:42;99792.00;;;12.17;61.82
63700;BME280;49845;47.130;142.766;2023-05-23T01:23:28;99731.25;;;12.34;60.07
63700;BME280;49845;47.130;142.766;2023-05-23T01:26:17;99755.53;;;12.39;58.30
63700;BME280;49845;47.130;142.766;2023-05-23T01:29:01;99772.94;;;12.68;58.82
63700;BME280;49845;47.130;142.766;2023-05-23T01:31:40;99776.53;;;12.66;59.68
63700;BME280;49845;47.130;142.766;2023-05-23T01:34:12;99787.78;;;12.68;59.16
63700;BME280;49845;47.130;142.766;2023-05-23T01:36:44;99736.97;;;12.19;58.09
63700;BME280;49845;47.130;142.766;2023-05-23T01:39:15;99788.50;;;12.46;60.32
63700;BME280;49845;47.130;142.766;2023-05-23T01:41:46;99788.63;;;12.42;59.19
63700;BME280;49845;47.130;142.766;2023-05-23T01:44:19;99792.19;;;12.39;57.95
63700;BME280;49845;47.130;142.766;2023-05-23T01:46:50;99792.06;;;12.16;57.64
63700;BME280;49845;47.130;142.766;2023-05-23T01:49:21;99719.06;;;12.05;57.82
63700;BME280;49845;47.130;142.766;2023-05-23T01:51:53;99784.94;;;12.76;58.02
63700;BME280;49845;47.130;142.766;2023-05-23T01:54:24;99793.53;;;13.06;56.41
63700;BME280;49845;47.130;142.766;2023-05-23T01:56:57;99747.69;;;12.66;56.20
63700;BME280;49845;47.130;142.766;2023-05-23T01:59:29;99792.72;;;12.77;57.11
63700;BME280;49845;47.130;142.766;2023-05-23T02:02:00;99816.53;;;12.71;58.38
63700;BME280;49845;47.130;142.766;2023-05-23T02:04:30;99790.13;;;12.50;55.41
63700;BME280;49845;47.130;142.766;2023-05-23T02:07:01;99802.47;;;12.45;57.94
63700;BME280;49845;47.130;142.766;2023-05-23T02:09:32;99808.13;;;12.33;57.19
63700;BME280;49845;47.130;142.766;2023-05-23T02:12:02;99820.22;;;12.37;56.26
63700;BME280;49845;47.130;142.766;2023-05-23T02:14:34;99814.97;;;12.37;57.14
63700;BME280;49845;47.130;142.766;2023-05-23T02:17:07;99815.72;;;12.69;56.39
63700;BME280;49845;47.130;142.766;2023-05-23T02:19:38;99801.69;;;12.70;56.54
63700;BME280;49845;47.130;142.766;2023-05-23T02:22:08;99808.88;;;13.18;58.66
63700;BME280;49845;47.130;142.766;2023-05-23T02:24:41;99819.06;;;13.27;57.56
63700;BME280;49845;47.130;142.766;2023-05-23T02:27:12;99819.94;;;13.53;55.83
63700;BME280;49845;47.130;142.766;2023-05-23T02:29:44;99791.09;;;13.26;57.99
63700;BME280;49845;47.130;142.766;2023-05-23T02:32:15;99819.59;;;13.37;59.51
63700;BME280;49845;47.130;142.766;2023-05-23T02:34:46;99818.94;;;13.30;55.59
63700;BME280;49845;47.130;142.766;2023-05-23T02:37:17;99815.69;;;13.22;56.64
63700;BME280;49845;47.130;142.766;2023-05-23T02:39:48;99829.34;;;13.07;57.40
63700;BME280;49845;47.130;142.766;2023-05-23T02:42:18;99836.72;;;12.95;61.29
63700;BME280;49845;47.130;142.766;2023-05-23T02:44:51;99837.09;;;13.10;57.06
63700;BME280;49845;47.130;142.766;2023-05-23T02:47:21;99843.75;;;13.20;57.00
63700;BME280;49845;47.130;142.766;2023-05-23T02:49:52;99846.31;;;12.95;56.05
63700;BME280;49845;47.130;142.766;2023-05-23T02:52:23;99843.66;;;12.97;56.19
63700;BME280;49845;47.130;142.766;2023-05-23T02:54:54;99839.25;;;12.99;57.21
63700;BME280;49845;47.130;142.766;2023-05-23T02:57:24;99785.78;;;12.76;58.71
63700;BME280;49845;47.130;142.766;2023-05-23T02:59:57;99849.06;;;12.92;57.23
63700;BME280;49845;47.130;142.766;2023-05-23T03:02:28;99819.97;;;12.73;60.97
63700;BME280;49845;47.130;142.766;2023-05-23T03:04:58;99841.25;;;12.90;58.05
63700;BME280;49845;47.130;142.766;2023-05-23T03:07:29;99855.75;;;12.74;57.46
63700;BME280;49845;47.130;142.766;2023-05-23T03:10:01;99845.38;;;12.71;57.08
63700;BME280;49845;47.130;142.766;2023-05-23T03:12:31;99854.34;;;12.64;58.07
63700;BME280;49845;47.130;142.766;2023-05-23T03:15:05;99850.63;;;12.71;57.78
63700;BME280;49845;47.130;142.766;2023-05-23T03:17:35;99861.09;;;12.71;58.52
63700;BME280;49845;47.130;142.766;2023-05-23T03:20:07;99848.19;;;12.65;58.21
63700;BME280;49845;47.130;142.766;2023-05-23T03:22:38;99841.44;;;12.84;59.38
63700;BME280;49845;47.130;142.766;2023-05-23T03:25:10;99850.31;;;12.80;60.05
63700;BME280;49845;47.130;142.766;2023-05-23T03:27:42;99849.63;;;13.02;58.45
63700;BME280;49845;47.130;142.766;2023-05-23T03:30:14;99825.81;;;12.81;60.07
63700;BME280;49845;47.130;142.766;2023-05-23T03:32:45;99860.09;;;13.02;60.24
63700;BME280;49845;47.130;142.766;2023-05-23T03:35:15;99863.72;;;12.98;59.11
63700;BME280;49845;47.130;142.766;2023-05-23T03:37:46;99845.66;;;12.62;58.80
63700;BME280;49845;47.130;142.766;2023-05-23T03:40:17;99877.44;;;12.79;60.16
63700;BME280;49845;47.130;142.766;2023-05-23T03:43:00;99882.34;;;12.62;58.80
63700;BME280;49845;47.130;142.766;2023-05-23T03:45:33;99838.22;;;12.48;61.37
63700;BME280;49845;47.130;142.766;2023-05-23T03:48:03;99871.66;;;12.68;60.07
63700;BME280;49845;47.130;142.766;2023-05-23T03:50:34;99807.81;;;12.42;60.61
63700;BME280;49845;47.130;142.766;2023-05-23T03:53:05;99838.41;;;12.70;58.91
63700;BME280;49845;47.130;142.766;2023-05-23T03:55:36;99862.16;;;12.92;59.77
63700;BME280;49845;47.130;142.766;2023-05-23T03:58:09;99869.38;;;12.85;58.12
63700;BME280;49845;47.130;142.766;2023-05-23T04:00:41;99874.59;;;12.85;57.45
63700;BME280;49845;47.130;142.766;2023-05-23T04:03:12;99881.97;;;12.74;58.22
63700;BME280;49845;47.130;142.766;2023-05-23T04:05:44;99877.09;;;12.62;60.76
63700;BME280;49845;47.130;142.766;2023-05-23T04:08:15;99871.78;;;12.65;60.45
63700;BME280;49845;47.130;142.766;2023-05-23T04:10:49;99845.75;;;12.59;59.74
63700;BME280;49845;47.130;142.766;2023-05-23T04:13:19;99862.53;;;12.81;58.83
63700;BME280;49845;47.130;142.766;2023-05-23T04:15:53;99871.84;;;12.90;59.18
63700;BME280;49845;47.130;142.766;2023-05-23T04:18:25;99884.91;;;12.91;58.38
63700;BME280;49845;47.130;142.766;2023-05-23T04:20:55;99883.41;;;12.84;57.12
63700;BME280;49845;47.130;142.766;2023-05-23T04:23:26;99887.59;;;12.62;58.82
63700;BME280;49845;47.130;142.766;2023-05-23T04:25:57;99876.72;;;12.74;60.13
63700;BME280;49845;47.130;142.766;2023-05-23T04:28:28;99889.75;;;12.77;56.83
63700;BME280;49845;47.130;142.766;2023-05-23T04:31:00;99854.22;;;12.67;59.26
63700;BME280;49845;47.130;142.766;2023-05-23T04:33:31;99877.88;;;12.93;59.94
63700;BME280;49845;47.130;142.766;2023-05-23T04:36:03;99890.84;;;12.98;57.16
63700;BME280;49845;47.130;142.766;2023-05-23T04:38:36;99885.09;;;12.85;57.73
63700;BME280;49845;47.130;142.766;2023-05-23T04:41:08;99888.91;;;12.75;58.30
63700;BME280;49845;47.130;142.766;2023-05-23T04:43:40;99884.56;;;12.76;57.07
63700;BME280;49845;47.130;142.766;2023-05-23T04:46:13;99855.09;;;12.67;59.04
63700;BME280;49845;47.130;142.766;2023-05-23T04:48:44;99895.41;;;12.91;55.79
63700;BME280;49845;47.130;142.766;2023-05-23T04:51:15;99892.06;;;12.86;55.95
63700;BME280;49845;47.130;142.766;2023-05-23T04:53:47;99862.53;;;12.81;58.47
63700;BME280;49845;47.130;142.766;2023-05-23T04:56:18;99867.38;;;12.93;58.46
63700;BME280;49845;47.130;142.766;2023-05-23T04:58:49;99880.97;;;13.05;56.21
63700;BME280;49845;47.130;142.766;2023-05-23T05:01:21;99879.19;;;13.07;57.04
63700;BME280;49845;47.130;142.766;2023-05-23T05:03:53;99884.63;;;13.01;55.87
63700;BME280;49845;47.130;142.766;2023-05-23T05:06:23;99889.66;;;13.07;57.22
63700;BME280;49845;47.130;142.766;2023-05-23T05:08:54;99865.47;;;12.99;57.97
63700;BME280;49845;47.130;142.766;2023-05-23T05:11:25;99883.72;;;13.02;54.91
63700;BME280;49845;47.130;142.766;2023-05-23T05:13:56;99900.41;;;12.99;56.23
63700;BME280;49845;47.130;142.766;2023-05-23T05:16:28;99903.50;;;13.12;55.41
63700;BME280;49845;47.130;142.766;2023-05-23T05:18:59;99891.59;;;13.02;56.91
63700;BME280;49845;47.130;142.766;2023-05-23T05:21:29;99891.78;;;12.95;57.07
63700;BME280;49845;47.130;142.766;2023-05-23T05:24:00;99894.22;;;13.02;57.53
63700;BME280;49845;47.130;142.766;2023-05-23T05:26:30;99888.03;;;13.03;58.01
63700;BME280;49845;47.130;142.766;2023-05-23T05:29:01;99898.34;;;13.09;56.02
63700;BME280;49845;47.130;142.766;2023-05-23T05:31:33;99891.59;;;13.02;56.81
63700;BME280;49845;47.130;142.766;2023-05-23T05:34:04;99885.34;;;13.06;56.19
63700;BME280;49845;47.130;142.766;2023-05-23T05:36:35;99891.28;;;13.11;57.19
63700;BME280;49845;47.130;142.766;2023-05-23T05:39:06;99890.72;;;13.29;56.62
63700;BME280;49845;47.130;142.766;2023-05-23T05:41:36;99874.78;;;13.35;55.49
63700;BME280;49845;47.130;142.766;2023-05-23T05:44:07;99893.63;;;13.47;55.20
63700;BME280;49845;47.130;142.766;2023-05-23T05:46:39;99890.41;;;13.38;56.02
63700;BME280;49845;47.130;142.766;2023-05-23T05:49:10;99882.94;;;13.53;57.03
63700;BME280;49845;47.130;142.766;2023-05-23T05:51:41;99884.13;;;13.43;54.71
63700;BME280;49845;47.130;142.766;2023-05-23T05:54:11;99886.50;;;13.24;54.84
63700;BME280;49845;47.130;142.766;2023-05-23T05:56:45;99900.47;;;13.24;56.45
63700;BME280;49845;47.130;142.766;2023-05-23T05:59:16;99885.28;;;13.35;55.06
63700;BME280;49845;47.130;142.766;2023-05-23T06:01:48;99879.34;;;13.29;54.01
63700;BME280;49845;47.130;142.766;2023-05-23T06:04:19;99891.19;;;13.14;54.84
63700;BME280;49845;47.130;142.766;2023-05-23T06:06:50;99887.34;;;13.24;56.06
63700;BME280;49845;47.130;142.766;2023-05-23T06:09:20;99890.41;;;13.38;55.21
63700;BME280;49845;47.130;142.766;2023-05-23T06:11:51;99890.66;;;13.31;55.07
63700;BME280;49845;47.130;142.766;2023-05-23T06:14:21;99898.88;;;13.47;55.47
63700;BME280;49845;47.130;142.766;2023-05-23T06:16:54;99892.00;;;13.43;54.81
63700;BME280;49845;47.130;142.766;2023-05-23T06:19:25;99887.97;;;13.32;54.34
63700;BME280;49845;47.130;142.766;2023-05-23T06:21:55;99886.59;;;13.21;53.80
63700;BME280;49845;47.130;142.766;2023-05-23T06:24:26;99841.91;;;12.97;55.33
63700;BME280;49845;47.130;142.766;2023-05-23T06:26:56;99908.06;;;13.33;53.44
63700;BME280;49845;47.130;142.766;2023-05-23T06:29:27;99896.53;;;13.37;55.88
63700;BME280;49845;47.130;142.766;2023-05-23T06:32:00;99897.50;;;13.35;53.71
63700;BME280;49845;47.130;142.766;2023-05-23T06:34:31;99883.22;;;13.17;53.43
63700;BME280;49845;47.130;142.766;2023-05-23T06:37:01;99841.25;;;12.90;55.33
63700;BME280;49845;47.130;142.766;2023-05-23T06:39:32;99889.28;;;13.19;56.11
63700;BME280;49845;47.130;142.766;2023-05-23T06:42:03;99878.41;;;13.31;56.67
63700;BME280;49845;47.130;142.766;2023-05-23T06:44:34;99883.34;;;13.41;56.31
63700;BME280;49845;47.130;142.766;2023-05-23T06:47:06;99890.28;;;13.42;53.96
63700;BME280;49845;47.130;142.766;2023-05-23T06:49:36;99875.34;;;13.17;55.33
63700;BME280;49845;47.130;142.766;2023-05-23T06:52:07;99885.66;;;13.23;55.67
63700;BME280;49845;47.130;142.766;2023-05-23T06:54:38;99890.78;;;13.26;54.37
63700;BME280;49845;47.130;142.766;2023-05-23T06:57:09;99885.34;;;13.32;54.77
63700;BME280;49845;47.130;142.766;2023-05-23T06:59:39;99888.91;;;13.31;53.92
63700;BME280;49845;47.130;142.766;2023-05-23T07:02:11;99887.56;;;13.45;55.10
63700;BME280;49845;47.130;142.766;2023-05-23T07:04:42;99890.41;;;13.38;54.12
63700;BME280;49845;47.130;142.766;2023-05-23T07:07:12;99895.66;;;13.38;54.38
63700;BME280;49845;47.130;142.766;2023-05-23T07:09:43;99863.88;;;13.20;54.86
63700;BME280;49845;47.130;142.766;2023-05-23T07:12:14;99893.22;;;13.32;53.70
63700;BME280;49845;47.130;142.766;2023-05-23T07:14:44;99893.91;;;13.37;54.00
63700;BME280;49845;47.130;142.766;2023-05-23T07:17:16;99892.78;;;13.46;54.16
63700;BME280;49845;47.130;142.766;2023-05-23T07:19:47;99898.00;;;13.46;54.03
63700;BME280;49845;47.130;142.766;2023-05-23T07:22:18;99900.56;;;13.48;54.29
63700;BME280;49845;47.130;142.766;2023-05-23T07:24:48;99898.88;;;13.47;55.51
63700;BME280;49845;47.130;142.766;2023-05-23T07:27:19;99898.13;;;13.68;54.71
63700;BME280;49845;47.130;142.766;2023-05-23T07:29:49;99889.34;;;13.69;53.90
63700;BME280;49845;47.130;142.766;2023-05-23T07:32:22;99897.16;;;13.46;52.60
63700;BME280;49845;47.130;142.766;2023-05-23T07:34:52;99901.09;;;13.32;54.44
63700;BME280;49845;47.130;142.766;2023-05-23T07:37:23;99892.69;;;13.21;55.63
63700;BME280;49845;47.130;142.766;2023-05-23T07:39:54;99898.06;;;13.18;55.73
63700;BME280;49845;47.130;142.766;2023-05-23T07:42:25;99898.47;;;13.06;55.89
63700;BME280;49845;47.130;142.766;2023-05-23T07:44:55;99883.00;;;12.97;55.74
63700;BME280;49845;47.130;142.766;2023-05-23T07:47:27;99895.59;;;12.85;55.92
63700;BME280;49845;47.130;142.766;2023-05-23T07:49:58;99887.91;;;12.81;56.41
63700;BME280;49845;47.130;142.766;2023-05-23T07:52:30;99898.84;;;12.93;55.66
63700;BME280;49845;47.130;142.766;2023-05-23T07:55:01;99890.06;;;12.94;56.31
63700;BME280;49845;47.130;142.766;2023-05-23T07:57:31;99894.63;;;12.88;55.12
63700;BME280;49845;47.130;142.766;2023-05-23T08:00:02;99907.00;;;12.84;55.44
63700;BME280;49845;47.130;142.766;2023-05-23T08:02:35;99907.81;;;12.86;54.83
63700;BME280;49845;47.130;142.766;2023-05-23T08:05:06;99912.44;;;12.78;55.42
63700;BME280;49845;47.130;142.766;2023-05-23T08:07:36;99915.13;;;12.75;55.75
63700;BME280;49845;47.130;142.766;2023-05-23T08:10:08;99868.00;;;12.45;54.89
63700;BME280;49845;47.130;142.766;2023-05-23T08:12:38;99913.34;;;12.77;56.44
63700;BME280;49845;47.130;142.766;2023-05-23T08:15:09;99927.34;;;12.76;55.87
63700;BME280;49845;47.130;142.766;2023-05-23T08:17:42;99906.56;;;12.70;56.61
63700;BME280;49845;47.130;142.766;2023-05-23T08:20:12;99928.88;;;12.83;55.09
63700;BME280;49845;47.130;142.766;2023-05-23T08:22:43;99920.75;;;12.63;55.51
63700;BME280;49845;47.130;142.766;2023-05-23T08:25:14;99931.16;;;12.66;54.62
63700;BME280;49845;47.130;142.766;2023-05-23T08:27:44;99903.06;;;12.41;54.63
63700;BME280;49845;47.130;142.766;2023-05-23T08:30:15;99936.47;;;12.63;54.86
63700;BME280;49845;47.130;142.766;2023-05-23T08:32:47;99936.41;;;12.66;54.58
63700;BME280;49845;47.130;142.766;2023-05-23T08:35:18;99941.72;;;12.63;54.26
63700;BME280;49845;47.130;142.766;2023-05-23T08:37:48;99941.66;;;12.66;54.64
63700;BME280;49845;47.130;142.766;2023-05-23T08:40:20;99941.72;;;12.63;53.87
63700;BME280;49845;47.130;142.766;2023-05-23T08:42:50;99954.66;;;12.69;54.53
63700;BME280;49845;47.130;142.766;2023-05-23T08:45:21;99959.00;;;12.70;54.61
63700;BME280;49845;47.130;142.766;2023-05-23T08:47:55;99959.44;;;12.84;54.62
63700;BME280;49845;47.130;142.766;2023-05-23T08:50:27;99956.81;;;12.84;53.36
63700;BME280;49845;47.130;142.766;2023-05-23T08:52:59;99962.44;;;12.72;52.99
63700;BME280;49845;47.130;142.766;2023-05-23T08:55:31;99969.47;;;12.70;53.58
63700;BME280;49845;47.130;142.766;2023-05-23T08:58:02;99974.00;;;12.65;54.22
63700;BME280;49845;47.130;142.766;2023-05-23T09:00:33;99911.59;;;12.48;55.10
63700;BME280;49845;47.130;142.766;2023-05-23T09:03:06;99972.59;;;12.83;57.13
63700;BME280;49845;47.130;142.766;2023-05-23T09:05:39;99982.94;;;12.87;57.82
63700;BME280;49845;47.130;142.766;2023-05-23T09:08:11;99980.97;;;12.95;58.22
63700;BME280;49845;47.130;142.766;2023-05-23T09:10:45;99986.09;;;12.99;58.93
63700;BME280;49845;47.130;142.766;2023-05-23T09:13:17;99992.41;;;12.93;58.90
63700;BME280;49845;47.130;142.766;2023-05-23T09:16:01;99996.03;;;12.87;58.88
63700;BME280;49845;47.130;142.766;2023-05-23T09:18:37;99983.22;;;12.78;58.81
63700;BME280;49845;47.130;142.766;2023-05-23T09:21:08;99992.31;;;12.66;59.01
63700;BME280;49845;47.130;142.766;2023-05-23T09:23:40;99990.81;;;12.58;59.62
63700;BME280;49845;47.130;142.766;2023-05-23T09:26:11;100009.22;;;12.56;59.45
63700;BME280;49845;47.130;142.766;2023-05-23T09:28:44;100014.00;;;12.40;59.59
63700;BME280;49845;47.130;142.766;2023-05-23T09:31:25;100017.63;;;12.36;60.18
63700;BME280;49845;47.130;142.766;2023-05-23T09:34:10;100018.19;;;12.15;59.67
63700;BME280;49845;47.130;142.766;2023-05-23T09:36:47;100014.94;;;12.06;60.68
63700;BME280;49845;47.130;142.766;2023-05-23T09:39:20;99979.63;;;11.89;61.07
63700;BME280;49845;47.130;142.766;2023-05-23T09:41:56;100018.59;;;12.01;61.29
63700;BME280;49845;47.130;142.766;2023-05-23T09:44:40;100019.78;;;11.87;61.22
63700;BME280;49845;47.130;142.766;2023-05-23T09:47:13;100022.81;;;11.71;61.70
63700;BME280;49845;47.130;142.766;2023-05-23T09:49:46;100021.59;;;11.48;62.10
63700;BME280;49845;47.130;142.766;2023-05-23T09:52:18;100012.03;;;11.08;63.10
63700;BME280;49845;47.130;142.766;2023-05-23T09:54:51;100026.38;;;10.92;63.66
63700;BME280;49845;47.130;142.766;2023-05-23T09:57:23;100032.09;;;10.67;64.17
63700;BME280;49845;47.130;142.766;2023-05-23T10:00:00;100024.69;;;10.46;65.00
63700;BME280;49845;47.130;142.766;2023-05-23T10:02:57;100035.41;;;10.32;65.38
63700;BME280;49845;47.130;142.766;2023-05-23T10:05:44;100014.19;;;10.01;65.69
63700;BME280;49845;47.130;142.766;2023-05-23T10:08:20;100031.75;;;9.92;66.11
63700;BME280;49845;47.130;142.766;2023-05-23T10:14:06;100046.97;;;9.66;67.21
63700;BME280;49845;47.130;142.766;2023-05-23T10:16:44;100051.56;;;9.52;67.60
63700;BME280;49845;47.130;142.766;2023-05-23T10:19:23;100023.25;;;9.25;68.37
63700;BME280;49845;47.130;142.766;2023-05-23T10:22:02;100058.78;;;9.34;68.60
63700;BME280;49845;47.130;142.766;2023-05-23T10:24:33;100053.00;;;9.12;68.92
63700;BME280;49845;47.130;142.766;2023-05-23T10:27:06;100067.81;;;9.09;69.85
63700;BME280;49845;47.130;142.766;2023-05-23T10:29:44;100072.25;;;9.02;70.37
63700;BME280;49845;47.130;142.766;2023-05-23T10:32:17;100067.13;;;8.94;70.83
63700;BME280;49845;47.130;142.766;2023-05-23T10:34:55;100020.69;;;8.56;71.19
63700;BME280;49845;47.130;142.766;2023-05-23T10:37:34;100086.44;;;8.79;71.35
63700;BME280;49845;47.130;142.766;2023-05-23T10:40:09;100067.66;;;8.51;71.84
63700;BME280;49845;47.130;142.766;2023-05-23T10:42:51;100096.31;;;8.51;72.30
63700;BME280;49845;47.130;142.766;2023-05-23T10:45:23;100072.97;;;8.36;72.68
63700;BME280;49845;47.130;142.766;2023-05-23T10:47:58;100102.50;;;8.39;72.90
63700;BME280;49845;47.130;142.766;2023-05-23T10:50:33;100116.38;;;8.37;73.24
63700;BME280;49845;47.130;142.766;2023-05-23T10:53:06;100114.66;;;8.34;73.63
63700;BME280;49845;47.130;142.766;2023-05-23T10:55:48;100127.63;;;8.39;73.81
63700;BME280;49845;47.130;142.766;2023-05-23T10:58:29;100116.47;;;8.23;73.99
63700;BME280;49845;47.130;142.766;2023-05-23T11:01:13;100126.06;;;8.19;74.33
63700;BME280;49845;47.130;142.766;2023-05-23T11:03:51;100057.06;;;7.75;73.98
63700;BME280;49845;47.130;142.766;2023-05-23T11:06:30;100151.25;;;8.17;74.36
63700;BME280;49845;47.130;142.766;2023-05-23T11:09:07;100159.13;;;8.11;74.06
63700;BME280;49845;47.130;142.766;2023-05-23T11:11:54;100136.69;;;7.95;74.11
63700;BME280;49845;47.130;142.766;2023-05-23T11:14:50;100148.88;;;7.90;74.46
63700;BME280;49845;47.130;142.766;2023-05-23T11:17:35;100147.16;;;7.86;74.92
63700;BME280;49845;47.130;142.766;2023-05-23T11:20:12;100163.59;;;7.94;74.47
63700;BME280;49845;47.130;142.766;2023-05-23T11:22:53;100166.28;;;7.82;74.55
63700;BME280;49845;47.130;142.766;2023-05-23T11:25:38;100171.47;;;7.82;74.75
63700;BME280;49845;47.130;142.766;2023-05-23T11:28:10;100168.91;;;7.72;74.81
63700;BME280;49845;47.130;142.766;2023-05-23T11:30:41;100156.03;;;7.52;74.97
63700;BME280;49845;47.130;142.766;2023-05-23T11:33:14;100181.16;;;7.56;75.20
63700;BME280;49845;47.130;142.766;2023-05-23T11:35:51;100186.38;;;7.50;75.49
63700;BME280;49845;47.130;142.766;2023-05-23T11:38:24;100165.72;;;7.24;75.47
63700;BME280;49845;47.130;142.766;2023-05-23T11:40:59;100188.19;;;7.38;75.95
63700;BME280;49845;47.130;142.766;2023-05-23T11:43:32;100202.00;;;7.41;76.32
63700;BME280;49845;47.130;142.766;2023-05-23T11:46:07;100201.19;;;7.34;76.60
63700;BME280;49845;47.130;142.766;2023-05-23T11:48:44;100173.59;;;7.03;76.60
63700;BME280;49845;47.130;142.766;2023-05-23T11:51:14;100202.13;;;7.20;77.21
63700;BME280;49845;47.130;142.766;2023-05-23T11:53:49;100191.75;;;7.06;77.94
63700;BME280;49845;47.130;142.766;2023-05-23T11:56:21;100194.34;;;7.06;78.60
63700;BME280;49845;47.130;142.766;2023-05-23T11:58:58;100194.34;;;7.06;78.64
63700;BME280;49845;47.130;142.766;2023-05-23T12:01:28;100197.81;;;7.03;78.86
63700;BME280;49845;47.130;142.766;2023-05-23T12:04:08;100198.69;;;7.01;79.04
63700;BME280;49845;47.130;142.766;2023-05-23T12:06:46;100204.78;;;6.94;79.11
63700;BME280;49845;47.130;142.766;2023-05-23T12:09:17;100212.59;;;6.83;79.23
63700;BME280;49845;47.130;142.766;2023-05-23T12:11:49;100222.97;;;6.90;79.53
63700;BME280;49845;47.130;142.766;2023-05-23T12:14:30;100229.03;;;6.93;79.63
63700;BME280;49845;47.130;142.766;2023-05-23T12:17:04;100228.19;;;6.89;79.58
63700;BME280;49845;47.130;142.766;2023-05-23T12:19:44;100223.00;;;6.78;79.80
63700;BME280;49845;47.130;142.766;2023-05-23T12:22:22;100211.75;;;6.73;80.29
63700;BME280;49845;47.130;142.766;2023-05-23T12:25:06;100225.59;;;6.66;80.06
63700;BME280;49845;47.130;142.766;2023-05-23T12:27:48;100193.59;;;6.55;79.90
63700;BME280;49845;47.130;142.766;2023-05-23T12:30:18;100220.41;;;6.75;79.50
63700;BME280;49845;47.130;142.766;2023-05-23T12:32:49;100223.00;;;6.72;78.96
63700;BME280;49845;47.130;142.766;2023-05-23T12:35:20;100235.13;;;6.64;78.35
63700;BME280;49845;47.130;142.766;2023-05-23T12:37:50;100239.47;;;6.56;78.36
63700;BME280;49845;47.130;142.766;2023-05-23T12:40:24;100251.59;;;6.44;78.18
63700;BME280;49845;47.130;142.766;2023-05-23T12:42:59;100249.84;;;6.50;78.33
63700;BME280;49845;47.130;142.766;2023-05-23T12:45:33;100120.06;;;5.73;78.17
63700;BME280;49845;47.130;142.766;2023-05-23T12:48:04;100245.53;;;6.39;77.86
63700;BME280;49845;47.130;142.766;2023-05-23T12:50:38;100242.91;;;6.33;77.79
63700;BME280;49845;47.130;142.766;2023-05-23T12:53:09;100239.44;;;6.31;78.10
63700;BME280;49845;47.130;142.766;2023-05-23T12:55:42;100233.41;;;6.35;78.52
63700;BME280;49845;47.130;142.766;2023-05-23T12:58:15;100236.00;;;6.34;78.48
63700;BME280;49845;47.130;142.766;2023-05-23T13:00:45;100234.28;;;6.28;78.31
63700;BME280;49845;47.130;142.766;2023-05-23T13:03:19;100235.97;;;6.14;78.88
63700;BME280;49845;47.130;142.766;2023-05-23T13:05:50;100239.44;;;6.07;79.25
63700;BME280;49845;47.130;142.766;2023-05-23T13:08:21;100234.25;;;6.00;79.97
63700;BME280;49845;47.130;142.766;2023-05-23T13:10:56;100190.91;;;5.66;80.29
63700;BME280;49845;47.130;142.766;2023-05-23T13:13:28;100222.91;;;5.75;80.89